sensor_id;sensor_type;location;lat;lon;timestamp;P1;durP1;ratioP1;P2;durP2;ratioP2
18983;SDS011;9626;52.552;13.436;2023-07-29T00:01:45;5.90;;;5.35;;
18983;SDS011;9626;52.552;13.436;2023-07-29T00:04:11;6.13;;;5.43;;
18983;SDS011;9626;52.552;13.436;2023-07-29T00:06:37;6.60;;;5.45;;
18983;SDS011;9626;52.552;13.436;2023-07-29T00:09:03;6.65;;;5.20;;
18983;SDS011;9626;52.552;13.436;2023-07-29T00:11:29;8.98;;;6.03;;
18983;SDS011;9626;52.552;13.436;2023-07-29T00:13:56;6.95;;;6.15;;
18983;SDS011;9626;52.552;13.436;2023-07-29T00:16:22;6.03;;;5.45;;
18983;SDS011;9626;52.552;13.436;2023-07-29T00:18:48;6.33;;;5.70;;
18983;SDS011;9626;52.552;13.436;2023-07-29T00:21:14;6.80;;;6.10;;
18983;SDS011;9626;52.552;13.436;2023-07-29T00:23:40;6.90;;;6.20;;
18983;SDS011;9626;52.552;13.436;2023-07-29T00:26:06;7.57;;;5.87;;
18983;SDS011;9626;52.552;13.436;2023-07-29T00:28:32;6.32;;;5.72;;
18983;SDS011;9626;52.552;13.436;2023-07-29T00:30:58;8.17;;;7.37;;
18983;SDS011;9626;52.552;13.436;2023-07-29T00:33:24;8.47;;;7.67;;
18983;SDS011;9626;52.552;13.436;2023-07-29T00:35:50;8.17;;;6.33;;
18983;SDS011;9626;52.552;13.436;2023-07-29T00:38:16;8.87;;;7.97;;
18983;SDS011;9626;52.552;13.436;2023-07-29T00:40:42;8.70;;;7.00;;
18983;SDS011;9626;52.552;13.436;2023-07-29T00:43:08;8.02;;;6.97;;
18983;SDS011;9626;52.552;13.436;2023-07-29T00:45:34;7.00;;;6.32;;
18983;SDS011;9626;52.552;13.436;2023-07-29T00:48:01;6.68;;;5.97;;
18983;SDS011;9626;52.552;13.436;2023-07-29T00:50:28;6.90;;;6.23;;
18983;SDS011;9626;52.552;13.436;2023-07-29T00:52:56;7.00;;;6.30;;
18983;SDS011;9626;52.552;13.436;2023-07-29T00:55:23;9.23;;;7.90;;
18983;SDS011;9626;52.552;13.436;2023-07-29T00:57:50;9.40;;;6.67;;
18983;SDS011;9626;52.552;13.436;2023-07-29T01:00:18;7.07;;;6.47;;
18983;SDS011;9626;52.552;13.436;2023-07-29T01:02:44;7.85;;;6.57;;
18983;SDS011;9626;52.552;13.436;2023-07-29T01:05:12;8.52;;;6.93;;
18983;SDS011;9626;52.552;13.436;2023-07-29T01:16:00;8.33;;;6.83;;
18983;SDS011;9626;52.552;13.436;2023-07-29T01:18:32;8.00;;;7.20;;
18983;SDS011;9626;52.552;13.436;2023-07-29T01:21:03;8.93;;;6.37;;
18983;SDS011;9626;52.552;13.436;2023-07-29T01:23:36;8.60;;;7.00;;
18983;SDS011;9626;52.552;13.436;2023-07-29T01:26:02;8.75;;;7.72;;
18983;SDS011;9626;52.552;13.436;2023-07-29T01:28:29;8.27;;;6.80;;
18983;SDS011;9626;52.552;13.436;2023-07-29T01:31:27;7.50;;;6.77;;
18983;SDS011;9626;52.552;13.436;2023-07-29T01:33:49;10.83;;;7.40;;
18983;SDS011;9626;52.552;13.436;2023-07-29T01:36:39;7.70;;;7.00;;
18983;SDS011;9626;52.552;13.436;2023-07-29T01:39:08;7.90;;;7.10;;
18983;SDS011;9626;52.552;13.436;2023-07-29T01:41:37;7.30;;;6.60;;
18983;SDS011;9626;52.552;13.436;2023-07-29T01:44:03;9.50;;;6.43;;
18983;SDS011;9626;52.552;13.436;2023-07-29T01:46:32;7.67;;;6.60;;
18983;SDS011;9626;52.552;13.436;2023-07-29T01:48:59;7.63;;;6.83;;
18983;SDS011;9626;52.552;13.436;2023-07-29T01:51:25;9.38;;;7.28;;
18983;SDS011;9626;52.552;13.436;2023-07-29T01:53:51;8.80;;;7.27;;
18983;SDS011;9626;52.552;13.436;2023-07-29T01:56:17;8.37;;;6.40;;
18983;SDS011;9626;52.552;13.436;2023-07-29T01:58:43;7.47;;;6.77;;
18983;SDS011;9626;52.552;13.436;2023-07-29T02:01:09;8.23;;;7.43;;
18983;SDS011;9626;52.552;13.436;2023-07-29T02:03:35;7.13;;;6.50;;
18983;SDS011;9626;52.552;13.436;2023-07-29T02:06:01;7.57;;;6.77;;
18983;SDS011;9626;52.552;13.436;2023-07-29T02:08:27;6.93;;;6.23;;
18983;SDS011;9626;52.552;13.436;2023-07-29T02:10:53;8.23;;;7.03;;
18983;SDS011;9626;52.552;13.436;2023-07-29T02:13:19;8.43;;;6.57;;
18983;SDS011;9626;52.552;13.436;2023-07-29T02:15:45;7.80;;;7.00;;
18983;SDS011;9626;52.552;13.436;2023-07-29T02:18:11;7.73;;;6.70;;
18983;SDS011;9626;52.552;13.436;2023-07-29T02:20:37;8.80;;;7.90;;
18983;SDS011;9626;52.552;13.436;2023-07-29T02:23:03;7.55;;;6.72;;
18983;SDS011;9626;52.552;13.436;2023-07-29T02:25:30;9.18;;;7.30;;
18983;SDS011;9626;52.552;13.436;2023-07-29T02:27:56;8.37;;;7.53;;
18983;SDS011;9626;52.552;13.436;2023-07-29T02:30:22;9.37;;;8.10;;
18983;SDS011;9626;52.552;13.436;2023-07-29T02:32:48;8.70;;;7.30;;
18983;SDS011;9626;52.552;13.436;2023-07-29T02:35:14;8.30;;;7.60;;
18983;SDS011;9626;52.552;13.436;2023-07-29T02:37:40;8.37;;;6.87;;
18983;SDS011;9626;52.552;13.436;2023-07-29T02:40:06;8.13;;;7.33;;
18983;SDS011;9626;52.552;13.436;2023-07-29T02:42:33;8.63;;;7.33;;
18983;SDS011;9626;52.552;13.436;2023-07-29T02:44:59;8.40;;;7.20;;
18983;SDS011;9626;52.552;13.436;2023-07-29T02:47:25;8.20;;;7.20;;
18983;SDS011;9626;52.552;13.436;2023-07-29T02:49:51;7.80;;;7.00;;
18983;SDS011;9626;52.552;13.436;2023-07-29T02:52:17;8.83;;;7.33;;
18983;SDS011;9626;52.552;13.436;2023-07-29T02:54:43;7.57;;;6.90;;
18983;SDS011;9626;52.552;13.436;2023-07-29T02:57:09;8.53;;;7.73;;
18983;SDS011;9626;52.552;13.436;2023-07-29T02:59:35;7.90;;;6.80;;
18983;SDS011;9626;52.552;13.436;2023-07-29T03:02:01;8.03;;;7.23;;
18983;SDS011;9626;52.552;13.436;2023-07-29T03:04:27;7.63;;;6.87;;
18983;SDS011;9626;52.552;13.436;2023-07-29T03:06:53;7.30;;;6.60;;
18983;SDS011;9626;52.552;13.436;2023-07-29T03:09:19;9.27;;;6.73;;
18983;SDS011;9626;52.552;13.436;2023-07-29T03:11:45;7.80;;;7.00;;
18983;SDS011;9626;52.552;13.436;2023-07-29T03:14:11;10.53;;;7.50;;
18983;SDS011;9626;52.552;13.436;2023-07-29T03:16:38;7.33;;;6.67;;
18983;SDS011;9626;52.552;13.436;2023-07-29T03:19:04;7.60;;;6.80;;
18983;SDS011;9626;52.552;13.436;2023-07-29T03:21:31;8.20;;;7.27;;
18983;SDS011;9626;52.552;13.436;2023-07-29T03:23:58;7.80;;;6.80;;
18983;SDS011;9626;52.552;13.436;2023-07-29T03:26:24;7.03;;;6.33;;
18983;SDS011;9626;52.552;13.436;2023-07-29T03:28:50;7.60;;;6.80;;
18983;SDS011;9626;52.552;13.436;2023-07-29T03:31:16;7.23;;;6.53;;
18983;SDS011;9626;52.552;13.436;2023-07-29T03:33:42;7.73;;;6.57;;
18983;SDS011;9626;52.552;13.436;2023-07-29T03:36:08;7.57;;;6.87;;
18983;SDS011;9626;52.552;13.436;2023-07-29T03:38:35;9.73;;;6.73;;
18983;SDS011;9626;52.552;13.436;2023-07-29T03:41:06;7.27;;;6.53;;
18983;SDS011;9626;52.552;13.436;2023-07-29T03:43:34;8.13;;;6.57;;
18983;SDS011;9626;52.552;13.436;2023-07-29T03:46:00;7.20;;;6.50;;
18983;SDS011;9626;52.552;13.436;2023-07-29T03:48:26;9.27;;;6.80;;
18983;SDS011;9626;52.552;13.436;2023-07-29T03:50:52;6.93;;;6.13;;
18983;SDS011;9626;52.552;13.436;2023-07-29T03:53:18;8.13;;;6.53;;
18983;SDS011;9626;52.552;13.436;2023-07-29T03:55:44;7.23;;;6.53;;
18983;SDS011;9626;52.552;13.436;2023-07-29T03:58:10;7.70;;;6.90;;
18983;SDS011;9626;52.552;13.436;2023-07-29T04:00:37;7.50;;;6.30;;
18983;SDS011;9626;52.552;13.436;2023-07-29T04:03:05;7.40;;;6.70;;
18983;SDS011;9626;52.552;13.436;2023-07-29T04:05:31;7.00;;;6.27;;
18983;SDS011;9626;52.552;13.436;2023-07-29T04:07:57;7.33;;;6.63;;
18983;SDS011;9626;52.552;13.436;2023-07-29T04:10:23;8.03;;;7.33;;
18983;SDS011;9626;52.552;13.436;2023-07-29T04:12:49;7.13;;;6.53;;
18983;SDS011;9626;52.552;13.436;2023-07-29T04:15:16;8.23;;;6.50;;
18983;SDS011;9626;52.552;13.436;2023-07-29T04:17:42;7.17;;;6.57;;
18983;SDS011;9626;52.552;13.436;2023-07-29T04:20:08;8.30;;;7.47;;
18983;SDS011;9626;52.552;13.436;2023-07-29T04:22:34;13.47;;;8.23;;
18983;SDS011;9626;52.552;13.436;2023-07-29T04:25:00;7.53;;;6.80;;
18983;SDS011;9626;52.552;13.436;2023-07-29T04:27:26;7.50;;;6.80;;
18983;SDS011;9626;52.552;13.436;2023-07-29T04:29:52;7.20;;;6.47;;
18983;SDS011;9626;52.552;13.436;2023-07-29T04:32:19;7.33;;;6.57;;
18983;SDS011;9626;52.552;13.436;2023-07-29T04:34:44;7.00;;;6.40;;
18983;SDS011;9626;52.552;13.436;2023-07-29T04:37:10;9.43;;;6.93;;
18983;SDS011;9626;52.552;13.436;2023-07-29T04:39:36;7.47;;;6.73;;
18983;SDS011;9626;52.552;13.436;2023-07-29T04:42:03;6.87;;;6.27;;
18983;SDS011;9626;52.552;13.436;2023-07-29T04:44:29;6.90;;;6.30;;
18983;SDS011;9626;52.552;13.436;2023-07-29T04:46:55;7.30;;;6.70;;
18983;SDS011;9626;52.552;13.436;2023-07-29T04:49:21;7.20;;;6.07;;
18983;SDS011;9626;52.552;13.436;2023-07-29T04:51:47;7.30;;;6.70;;
18983;SDS011;9626;52.552;13.436;2023-07-29T04:54:13;7.13;;;6.43;;
18983;SDS011;9626;52.552;13.436;2023-07-29T04:56:39;7.90;;;6.90;;
18983;SDS011;9626;52.552;13.436;2023-07-29T04:59:05;7.40;;;6.60;;
18983;SDS011;9626;52.552;13.436;2023-07-29T05:01:34;7.30;;;6.60;;
18983;SDS011;9626;52.552;13.436;2023-07-29T05:04:00;7.97;;;7.03;;
18983;SDS011;9626;52.552;13.436;2023-07-29T05:06:26;8.60;;;6.80;;
18983;SDS011;9626;52.552;13.436;2023-07-29T05:08:52;7.73;;;6.03;;
18983;SDS011;9626;52.552;13.436;2023-07-29T05:11:18;9.73;;;8.83;;
18983;SDS011;9626;52.552;13.436;2023-07-29T05:13:43;7.17;;;6.47;;
18983;SDS011;9626;52.552;13.436;2023-07-29T05:16:11;7.60;;;6.50;;
18983;SDS011;9626;52.552;13.436;2023-07-29T05:18:37;7.10;;;6.40;;
18983;SDS011;9626;52.552;13.436;2023-07-29T05:21:05;7.40;;;6.73;;
18983;SDS011;9626;52.552;13.436;2023-07-29T05:23:31;6.87;;;6.20;;
18983;SDS011;9626;52.552;13.436;2023-07-29T05:25:57;7.17;;;6.47;;
18983;SDS011;9626;52.552;13.436;2023-07-29T05:28:23;9.23;;;7.03;;
18983;SDS011;9626;52.552;13.436;2023-07-29T05:30:49;7.20;;;6.50;;
18983;SDS011;9626;52.552;13.436;2023-07-29T05:33:15;7.27;;;6.57;;
18983;SDS011;9626;52.552;13.436;2023-07-29T05:35:41;6.60;;;6.00;;
18983;SDS011;9626;52.552;13.436;2023-07-29T05:38:07;7.10;;;6.40;;
18983;SDS011;9626;52.552;13.436;2023-07-29T05:40:34;6.70;;;6.10;;
18983;SDS011;9626;52.552;13.436;2023-07-29T05:43:00;7.33;;;6.13;;
18983;SDS011;9626;52.552;13.436;2023-07-29T05:45:26;7.13;;;6.17;;
18983;SDS011;9626;52.552;13.436;2023-07-29T05:47:52;6.37;;;5.70;;
18983;SDS011;9626;52.552;13.436;2023-07-29T05:50:19;6.37;;;5.77;;
18983;SDS011;9626;52.552;13.436;2023-07-29T05:52:45;7.63;;;6.17;;
18983;SDS011;9626;52.552;13.436;2023-07-29T05:55:11;7.80;;;6.70;;
18983;SDS011;9626;52.552;13.436;2023-07-29T05:57:37;7.13;;;6.40;;
18983;SDS011;9626;52.552;13.436;2023-07-29T06:00:03;7.03;;;6.43;;
18983;SDS011;9626;52.552;13.436;2023-07-29T06:02:30;6.83;;;5.90;;
18983;SDS011;9626;52.552;13.436;2023-07-29T06:04:56;6.40;;;5.83;;
18983;SDS011;9626;52.552;13.436;2023-07-29T06:07:22;7.20;;;6.28;;
18983;SDS011;9626;52.552;13.436;2023-07-29T06:09:48;6.38;;;5.80;;
18983;SDS011;9626;52.552;13.436;2023-07-29T06:12:14;6.95;;;5.60;;
18983;SDS011;9626;52.552;13.436;2023-07-29T06:14:40;7.80;;;6.68;;
18983;SDS011;9626;52.552;13.436;2023-07-29T06:17:06;6.50;;;5.90;;
18983;SDS011;9626;52.552;13.436;2023-07-29T06:19:32;6.60;;;5.63;;
18983;SDS011;9626;52.552;13.436;2023-07-29T06:21:58;6.35;;;5.65;;
18983;SDS011;9626;52.552;13.436;2023-07-29T06:24:25;5.60;;;5.10;;
18983;SDS011;9626;52.552;13.436;2023-07-29T06:26:51;6.88;;;5.55;;
18983;SDS011;9626;52.552;13.436;2023-07-29T06:29:17;5.97;;;5.47;;
18983;SDS011;9626;52.552;13.436;2023-07-29T06:31:43;6.53;;;5.80;;
18983;SDS011;9626;52.552;13.436;2023-07-29T06:34:09;5.88;;;5.38;;
18983;SDS011;9626;52.552;13.436;2023-07-29T06:36:35;7.05;;;4.97;;
18983;SDS011;9626;52.552;13.436;2023-07-29T06:39:00;6.00;;;5.45;;
18983;SDS011;9626;52.552;13.436;2023-07-29T06:41:26;6.85;;;5.32;;
18983;SDS011;9626;52.552;13.436;2023-07-29T06:43:52;5.88;;;5.10;;
18983;SDS011;9626;52.552;13.436;2023-07-29T06:46:18;5.88;;;5.30;;
18983;SDS011;9626;52.552;13.436;2023-07-29T06:48:44;5.80;;;5.30;;
18983;SDS011;9626;52.552;13.436;2023-07-29T06:51:10;5.15;;;4.65;;
18983;SDS011;9626;52.552;13.436;2023-07-29T06:53:37;4.93;;;4.50;;
18983;SDS011;9626;52.552;13.436;2023-07-29T06:56:03;5.93;;;4.68;;
18983;SDS011;9626;52.552;13.436;2023-07-29T06:58:30;4.75;;;4.35;;
18983;SDS011;9626;52.552;13.436;2023-07-29T07:00:56;6.18;;;5.00;;
18983;SDS011;9626;52.552;13.436;2023-07-29T07:03:22;4.93;;;4.43;;
18983;SDS011;9626;52.552;13.436;2023-07-29T07:05:48;8.15;;;4.55;;
18983;SDS011;9626;52.552;13.436;2023-07-29T07:08:14;7.20;;;4.72;;
18983;SDS011;9626;52.552;13.436;2023-07-29T07:10:40;5.57;;;5.07;;
18983;SDS011;9626;52.552;13.436;2023-07-29T07:13:06;5.13;;;4.65;;
18983;SDS011;9626;52.552;13.436;2023-07-29T07:15:32;5.32;;;4.43;;
18983;SDS011;9626;52.552;13.436;2023-07-29T07:17:58;5.43;;;4.80;;
18983;SDS011;9626;52.552;13.436;2023-07-29T07:20:24;5.25;;;4.60;;
18983;SDS011;9626;52.552;13.436;2023-07-29T07:22:50;5.10;;;4.60;;
18983;SDS011;9626;52.552;13.436;2023-07-29T07:25:16;4.32;;;3.92;;
18983;SDS011;9626;52.552;13.436;2023-07-29T07:27:42;5.30;;;4.90;;
18983;SDS011;9626;52.552;13.436;2023-07-29T07:30:08;9.73;;;4.80;;
18983;SDS011;9626;52.552;13.436;2023-07-29T07:32:35;5.40;;;4.90;;
18983;SDS011;9626;52.552;13.436;2023-07-29T07:35:01;4.57;;;4.18;;
18983;SDS011;9626;52.552;13.436;2023-07-29T07:37:28;5.80;;;5.15;;
18983;SDS011;9626;52.552;13.436;2023-07-29T07:39:54;5.60;;;4.53;;
18983;SDS011;9626;52.552;13.436;2023-07-29T07:42:20;7.07;;;4.78;;
18983;SDS011;9626;52.552;13.436;2023-07-29T07:44:46;6.20;;;5.55;;
18983;SDS011;9626;52.552;13.436;2023-07-29T07:47:12;5.65;;;5.00;;
18983;SDS011;9626;52.552;13.436;2023-07-29T07:49:38;6.40;;;5.80;;
18983;SDS011;9626;52.552;13.436;2023-07-29T07:52:04;6.88;;;5.50;;
18983;SDS011;9626;52.552;13.436;2023-07-29T07:54:30;7.18;;;6.57;;
18983;SDS011;9626;52.552;13.436;2023-07-29T07:56:56;6.60;;;6.00;;
18983;SDS011;9626;52.552;13.436;2023-07-29T07:59:22;6.93;;;4.70;;
18983;SDS011;9626;52.552;13.436;2023-07-29T08:01:48;10.63;;;5.38;;
18983;SDS011;9626;52.552;13.436;2023-07-29T08:04:14;5.78;;;5.30;;
18983;SDS011;9626;52.552;13.436;2023-07-29T08:06:40;5.80;;;5.30;;
18983;SDS011;9626;52.552;13.436;2023-07-29T08:09:06;6.65;;;5.38;;
18983;SDS011;9626;52.552;13.436;2023-07-29T08:11:32;5.22;;;4.82;;
18983;SDS011;9626;52.552;13.436;2023-07-29T08:13:58;6.13;;;5.10;;
18983;SDS011;9626;52.552;13.436;2023-07-29T08:16:24;5.53;;;5.03;;
18983;SDS011;9626;52.552;13.436;2023-07-29T08:18:50;5.95;;;5.38;;
18983;SDS011;9626;52.552;13.436;2023-07-29T08:21:16;5.88;;;5.32;;
18983;SDS011;9626;52.552;13.436;2023-07-29T08:23:42;5.95;;;5.45;;
18983;SDS011;9626;52.552;13.436;2023-07-29T08:26:08;5.57;;;5.10;;
18983;SDS011;9626;52.552;13.436;2023-07-29T08:28:35;4.72;;;4.25;;
18983;SDS011;9626;52.552;13.436;2023-07-29T08:31:02;4.70;;;4.20;;
18983;SDS011;9626;52.552;13.436;2023-07-29T08:33:29;4.82;;;4.35;;
18983;SDS011;9626;52.552;13.436;2023-07-29T08:35:55;4.47;;;3.92;;
18983;SDS011;9626;52.552;13.436;2023-07-29T08:38:21;4.45;;;4.05;;
18983;SDS011;9626;52.552;13.436;2023-07-29T08:40:58;4.60;;;4.20;;
18983;SDS011;9626;52.552;13.436;2023-07-29T08:43:29;4.32;;;3.92;;
18983;SDS011;9626;52.552;13.436;2023-07-29T08:45:58;3.80;;;3.50;;
18983;SDS011;9626;52.552;13.436;2023-07-29T08:48:40;3.67;;;3.38;;
18983;SDS011;9626;52.552;13.436;2023-07-29T08:51:11;4.53;;;3.80;;
18983;SDS011;9626;52.552;13.436;2023-07-29T08:53:38;4.65;;;3.38;;
18983;SDS011;9626;52.552;13.436;2023-07-29T08:56:05;5.50;;;4.63;;
18983;SDS011;9626;52.552;13.436;2023-07-29T08:58:32;4.28;;;3.50;;
18983;SDS011;9626;52.552;13.436;2023-07-29T09:00:59;3.53;;;3.20;;
18983;SDS011;9626;52.552;13.436;2023-07-29T09:03:25;3.30;;;3.00;;
18983;SDS011;9626;52.552;13.436;2023-07-29T09:05:51;4.72;;;3.28;;
18983;SDS011;9626;52.552;13.436;2023-07-29T09:08:18;5.25;;;4.75;;
18983;SDS011;9626;52.552;13.436;2023-07-29T09:10:45;4.25;;;3.13;;
18983;SDS011;9626;52.552;13.436;2023-07-29T09:13:11;5.07;;;3.05;;
18983;SDS011;9626;52.552;13.436;2023-07-29T09:15:37;5.32;;;3.13;;
18983;SDS011;9626;52.552;13.436;2023-07-29T09:18:16;3.60;;;3.28;;
18983;SDS011;9626;52.552;13.436;2023-07-29T09:20:45;3.65;;;2.78;;
18983;SDS011;9626;52.552;13.436;2023-07-29T09:23:13;3.20;;;3.00;;
18983;SDS011;9626;52.552;13.436;2023-07-29T09:25:39;3.05;;;2.70;;
18983;SDS011;9626;52.552;13.436;2023-07-29T09:28:10;3.70;;;2.90;;
18983;SDS011;9626;52.552;13.436;2023-07-29T09:30:38;3.92;;;2.72;;
18983;SDS011;9626;52.552;13.436;2023-07-29T09:33:05;2.90;;;2.60;;
18983;SDS011;9626;52.552;13.436;2023-07-29T09:35:35;4.22;;;3.30;;
18983;SDS011;9626;52.552;13.436;2023-07-29T09:38:02;2.92;;;2.72;;
18983;SDS011;9626;52.552;13.436;2023-07-29T09:40:36;2.55;;;2.35;;
18983;SDS011;9626;52.552;13.436;2023-07-29T09:43:03;2.83;;;2.63;;
18983;SDS011;9626;52.552;13.436;2023-07-29T09:45:30;3.60;;;3.05;;
18983;SDS011;9626;52.552;13.436;2023-07-29T09:47:58;3.42;;;2.58;;
18983;SDS011;9626;52.552;13.436;2023-07-29T09:50:25;3.47;;;3.17;;
18983;SDS011;9626;52.552;13.436;2023-07-29T09:52:52;2.60;;;2.40;;
18983;SDS011;9626;52.552;13.436;2023-07-29T09:55:23;2.88;;;2.33;;
18983;SDS011;9626;52.552;13.436;2023-07-29T09:58:02;2.70;;;2.50;;
18983;SDS011;9626;52.552;13.436;2023-07-29T10:00:32;3.92;;;2.45;;
18983;SDS011;9626;52.552;13.436;2023-07-29T10:02:58;2.97;;;2.55;;
18983;SDS011;9626;52.552;13.436;2023-07-29T10:05:28;3.55;;;3.03;;
18983;SDS011;9626;52.552;13.436;2023-07-29T10:07:55;4.50;;;3.83;;
18983;SDS011;9626;52.552;13.436;2023-07-29T10:10:22;3.65;;;3.35;;
18983;SDS011;9626;52.552;13.436;2023-07-29T10:12:49;3.15;;;2.30;;
18983;SDS011;9626;52.552;13.436;2023-07-29T10:15:16;3.20;;;2.90;;
18983;SDS011;9626;52.552;13.436;2023-07-29T10:17:43;3.42;;;3.10;;
18983;SDS011;9626;52.552;13.436;2023-07-29T10:20:11;3.30;;;3.00;;
18983;SDS011;9626;52.552;13.436;2023-07-29T10:22:40;3.53;;;3.20;;
18983;SDS011;9626;52.552;13.436;2023-07-29T10:25:17;2.40;;;2.20;;
18983;SDS011;9626;52.552;13.436;2023-07-29T10:27:47;5.57;;;2.80;;
18983;SDS011;9626;52.552;13.436;2023-07-29T10:30:17;4.10;;;2.85;;
18983;SDS011;9626;52.552;13.436;2023-07-29T10:32:44;2.20;;;2.10;;
18983;SDS011;9626;52.552;13.436;2023-07-29T10:35:11;2.70;;;2.50;;
18983;SDS011;9626;52.552;13.436;2023-07-29T10:37:38;2.58;;;2.38;;
18983;SDS011;9626;52.552;13.436;2023-07-29T10:40:06;2.55;;;2.30;;
18983;SDS011;9626;52.552;13.436;2023-07-29T10:42:33;3.05;;;2.75;;
18983;SDS011;9626;52.552;13.436;2023-07-29T10:45:00;3.28;;;3.00;;
18983;SDS011;9626;52.552;13.436;2023-07-29T10:47:27;2.78;;;2.58;;
18983;SDS011;9626;52.552;13.436;2023-07-29T10:49:56;2.00;;;1.90;;
18983;SDS011;9626;52.552;13.436;2023-07-29T10:55:00;4.13;;;2.05;;
18983;SDS011;9626;52.552;13.436;2023-07-29T10:57:32;3.33;;;2.47;;
18983;SDS011;9626;52.552;13.436;2023-07-29T10:59:58;3.33;;;3.03;;
18983;SDS011;9626;52.552;13.436;2023-07-29T11:02:31;2.40;;;2.20;;
18983;SDS011;9626;52.552;13.436;2023-07-29T11:05:05;2.17;;;1.98;;
18983;SDS011;9626;52.552;13.436;2023-07-29T11:07:42;1.90;;;1.80;;
18983;SDS011;9626;52.552;13.436;2023-07-29T11:10:13;4.72;;;2.40;;
18983;SDS011;9626;52.552;13.436;2023-07-29T11:15:15;2.10;;;1.90;;
18983;SDS011;9626;52.552;13.436;2023-07-29T11:17:58;1.73;;;1.63;;
18983;SDS011;9626;52.552;13.436;2023-07-29T11:20:29;2.15;;;1.52;;
18983;SDS011;9626;52.552;13.436;2023-07-29T11:22:58;5.05;;;1.50;;
18983;SDS011;9626;52.552;13.436;2023-07-29T11:25:26;3.20;;;1.45;;
18983;SDS011;9626;52.552;13.436;2023-07-29T11:27:54;1.88;;;1.20;;
18983;SDS011;9626;52.552;13.436;2023-07-29T11:30:21;1.50;;;0.90;;
18983;SDS011;9626;52.552;13.436;2023-07-29T11:32:53;4.65;;;0.98;;
18983;SDS011;9626;52.552;13.436;2023-07-29T11:35:20;2.85;;;0.90;;
18983;SDS011;9626;52.552;13.436;2023-07-29T11:37:48;1.70;;;1.00;;
18983;SDS011;9626;52.552;13.436;2023-07-29T11:40:16;2.97;;;1.30;;
18983;SDS011;9626;52.552;13.436;2023-07-29T11:42:43;8.20;;;2.10;;
18983;SDS011;9626;52.552;13.436;2023-07-29T11:45:11;4.57;;;1.50;;
18983;SDS011;9626;52.552;13.436;2023-07-29T11:47:38;3.35;;;2.40;;
18983;SDS011;9626;52.552;13.436;2023-07-29T11:50:05;4.27;;;2.83;;
18983;SDS011;9626;52.552;13.436;2023-07-29T11:52:32;4.20;;;2.13;;
18983;SDS011;9626;52.552;13.436;2023-07-29T11:54:59;3.87;;;1.90;;
18983;SDS011;9626;52.552;13.436;2023-07-29T11:57:27;4.47;;;1.80;;
18983;SDS011;9626;52.552;13.436;2023-07-29T11:59:54;14.37;;;10.87;;
18983;SDS011;9626;52.552;13.436;2023-07-29T12:02:20;8.90;;;5.83;;
18983;SDS011;9626;52.552;13.436;2023-07-29T12:04:47;5.37;;;3.13;;
18983;SDS011;9626;52.552;13.436;2023-07-29T12:07:14;2.80;;;1.87;;
18983;SDS011;9626;52.552;13.436;2023-07-29T12:09:42;3.47;;;1.80;;
18983;SDS011;9626;52.552;13.436;2023-07-29T12:12:09;3.77;;;1.77;;
18983;SDS011;9626;52.552;13.436;2023-07-29T12:14:35;4.07;;;2.40;;
18983;SDS011;9626;52.552;13.436;2023-07-29T12:17:02;3.15;;;1.67;;
18983;SDS011;9626;52.552;13.436;2023-07-29T12:19:34;6.32;;;4.07;;
18983;SDS011;9626;52.552;13.436;2023-07-29T12:22:02;4.38;;;2.78;;
18983;SDS011;9626;52.552;13.436;2023-07-29T12:24:29;5.40;;;2.38;;
18983;SDS011;9626;52.552;13.436;2023-07-29T12:26:56;3.58;;;3.05;;
18983;SDS011;9626;52.552;13.436;2023-07-29T12:29:23;1.88;;;1.63;;
18983;SDS011;9626;52.552;13.436;2023-07-29T12:31:53;1.80;;;1.40;;
18983;SDS011;9626;52.552;13.436;2023-07-29T12:34:24;3.25;;;1.90;;
18983;SDS011;9626;52.552;13.436;2023-07-29T12:36:52;2.17;;;1.30;;
18983;SDS011;9626;52.552;13.436;2023-07-29T12:39:21;2.45;;;1.40;;
18983;SDS011;9626;52.552;13.436;2023-07-29T12:41:47;7.80;;;2.17;;
18983;SDS011;9626;52.552;13.436;2023-07-29T12:44:14;2.83;;;2.50;;
18983;SDS011;9626;52.552;13.436;2023-07-29T12:46:41;3.00;;;1.80;;
18983;SDS011;9626;52.552;13.436;2023-07-29T12:49:07;2.97;;;1.80;;
18983;SDS011;9626;52.552;13.436;2023-07-29T12:51:34;4.82;;;1.80;;
18983;SDS011;9626;52.552;13.436;2023-07-29T12:54:01;1.70;;;1.60;;
18983;SDS011;9626;52.552;13.436;2023-07-29T12:56:28;2.15;;;1.60;;
18983;SDS011;9626;52.552;13.436;2023-07-29T12:58:56;1.60;;;1.50;;
18983;SDS011;9626;52.552;13.436;2023-07-29T13:01:24;2.70;;;1.83;;
18983;SDS011;9626;52.552;13.436;2023-07-29T13:03:51;1.95;;;1.70;;
18983;SDS011;9626;52.552;13.436;2023-07-29T13:06:17;2.55;;;1.85;;
18983;SDS011;9626;52.552;13.436;2023-07-29T13:08:43;4.22;;;2.15;;
18983;SDS011;9626;52.552;13.436;2023-07-29T13:11:11;3.20;;;2.28;;
18983;SDS011;9626;52.552;13.436;2023-07-29T13:13:37;3.65;;;2.58;;
18983;SDS011;9626;52.552;13.436;2023-07-29T13:16:03;2.97;;;2.33;;
18983;SDS011;9626;52.552;13.436;2023-07-29T13:18:29;4.85;;;2.00;;
18983;SDS011;9626;52.552;13.436;2023-07-29T13:20:56;2.50;;;2.30;;
18983;SDS011;9626;52.552;13.436;2023-07-29T13:23:22;4.63;;;2.28;;
18983;SDS011;9626;52.552;13.436;2023-07-29T13:25:49;3.63;;;2.55;;
18983;SDS011;9626;52.552;13.436;2023-07-29T13:28:15;2.50;;;2.30;;
18983;SDS011;9626;52.552;13.436;2023-07-29T13:30:41;2.30;;;2.10;;
18983;SDS011;9626;52.552;13.436;2023-07-29T13:33:08;3.20;;;2.28;;
18983;SDS011;9626;52.552;13.436;2023-07-29T13:35:34;2.35;;;2.15;;
18983;SDS011;9626;52.552;13.436;2023-07-29T13:38:00;2.20;;;2.00;;
18983;SDS011;9626;52.552;13.436;2023-07-29T13:40:27;2.10;;;1.98;;
18983;SDS011;9626;52.552;13.436;2023-07-29T13:42:53;3.75;;;2.08;;
18983;SDS011;9626;52.552;13.436;2023-07-29T13:45:19;1.75;;;1.60;;
18983;SDS011;9626;52.552;13.436;2023-07-29T13:47:46;2.15;;;1.95;;
18983;SDS011;9626;52.552;13.436;2023-07-29T13:50:12;1.70;;;1.60;;
18983;SDS011;9626;52.552;13.436;2023-07-29T13:52:38;1.95;;;1.70;;
18983;SDS011;9626;52.552;13.436;2023-07-29T13:55:04;1.95;;;1.85;;
18983;SDS011;9626;52.552;13.436;2023-07-29T13:57:31;1.50;;;1.40;;
18983;SDS011;9626;52.552;13.436;2023-07-29T13:59:57;1.65;;;1.42;;
18983;SDS011;9626;52.552;13.436;2023-07-29T14:02:24;2.08;;;1.50;;
18983;SDS011;9626;52.552;13.436;2023-07-29T14:04:52;1.85;;;1.70;;
18983;SDS011;9626;52.552;13.436;2023-07-29T14:07:18;1.38;;;1.20;;
18983;SDS011;9626;52.552;13.436;2023-07-29T14:09:45;1.20;;;1.10;;
18983;SDS011;9626;52.552;13.436;2023-07-29T14:12:11;1.20;;;1.15;;
18983;SDS011;9626;52.552;13.436;2023-07-29T14:14:41;1.30;;;1.20;;
18983;SDS011;9626;52.552;13.436;2023-07-29T14:17:08;1.27;;;1.17;;
18983;SDS011;9626;52.552;13.436;2023-07-29T14:19:37;2.20;;;1.40;;
18983;SDS011;9626;52.552;13.436;2023-07-29T14:22:03;1.58;;;1.20;;
18983;SDS011;9626;52.552;13.436;2023-07-29T14:24:29;2.25;;;1.10;;
18983;SDS011;9626;52.552;13.436;2023-07-29T14:26:55;2.58;;;1.20;;
18983;SDS011;9626;52.552;13.436;2023-07-29T14:29:21;1.40;;;1.23;;
18983;SDS011;9626;52.552;13.436;2023-07-29T14:31:47;1.42;;;1.33;;
18983;SDS011;9626;52.552;13.436;2023-07-29T14:34:13;1.63;;;1.10;;
18983;SDS011;9626;52.552;13.436;2023-07-29T14:36:40;1.10;;;1.00;;
18983;SDS011;9626;52.552;13.436;2023-07-29T14:39:06;1.98;;;1.10;;
18983;SDS011;9626;52.552;13.436;2023-07-29T14:41:32;1.42;;;1.25;;
18983;SDS011;9626;52.552;13.436;2023-07-29T14:43:58;0.93;;;0.90;;
18983;SDS011;9626;52.552;13.436;2023-07-29T14:46:24;5.40;;;1.50;;
18983;SDS011;9626;52.552;13.436;2023-07-29T14:48:50;1.75;;;0.90;;
18983;SDS011;9626;52.552;13.436;2023-07-29T14:51:16;2.72;;;1.20;;
18983;SDS011;9626;52.552;13.436;2023-07-29T14:53:42;1.35;;;1.00;;
18983;SDS011;9626;52.552;13.436;2023-07-29T14:56:08;1.00;;;1.00;;
18983;SDS011;9626;52.552;13.436;2023-07-29T14:58:34;1.60;;;1.10;;
18983;SDS011;9626;52.552;13.436;2023-07-29T15:01:01;1.92;;;1.10;;